Terminal Aerodrome Forecast
Issued by NWS

Current Version | Previous Version | Text Only | Print | Product List | Glossary Off
Versions: 1 2 3 4 5 6 7 8 9 10 11 12 13

000
FTUS41 KPBZ 192321
TAFMGW
TAF
KMGW 192321Z 2000/2024 28010G16KT P6SM -SHSN SCT025 OVC040
      TEMPO 2000/2002 3SM -SHSN BKN022
     FM200400 27008KT P6SM BKN035
     FM201100 23007KT P6SM SCT040=

USA.gov is the U.S. government's official web portal to all federal, state and local government web resources and services.